Time;durP1;ratioP1;P1;durP2;ratioP2;P2;SDS_P1;SDS_P2;PMS_P1;PMS_P2;Temp;Humidity;BMP_temperature;BMP_pressure;BME280_temperature;BME280_humidity;BME280_pressure;Samples;Min_cycle;Max_cycle;Signal;HPM_P1;HPM_P2
2022/12/29 00:01:28;;;;;;;6.35;4.20;;;10.40;99.90;;;;;;5073674;28;20043;-81
2022/12/29 00:03:54;;;;;;;4.50;3.85;;;10.40;99.90;;;;;;5057685;28;20093;-82
2022/12/29 00:06:20;;;;;;;4.15;3.17;;;10.50;99.90;;;;;;5041295;28;20407;-82
2022/12/29 00:08:46;;;;;;;4.53;3.70;;;10.50;99.90;;;;;;5059261;28;20039;-82
2022/12/29 00:11:15;;;;;;;4.80;4.25;;;10.50;99.90;;;;;;5054773;28;20476;-81
2022/12/29 00:16:26;;;;;;;3.92;3.53;;;10.50;99.90;;;;;;5059191;28;20048;-81
2022/12/29 00:18:52;;;;;;;4.07;3.67;;;10.50;99.90;;;;;;5057485;28;20046;-81
2022/12/29 00:35:10;;;;;;;6.38;3.85;;;10.60;99.90;;;;;;5051529;28;20054;-82
2022/12/29 00:45:55;;;;;;;4.57;3.30;;;10.60;99.90;;;;;;5060624;28;20479;-82
2022/12/29 00:51:06;;;;;;;3.38;2.95;;;10.60;99.90;;;;;;5059423;28;20400;-81
2022/12/29 00:53:32;;;;;;;3.53;2.60;;;10.70;99.90;;;;;;5055303;28;20044;-82
2022/12/29 00:55:58;;;;;;;3.70;2.55;;;10.70;99.90;;;;;;5075102;28;20032;-83
2022/12/29 00:58:26;;;;;;;3.60;3.05;;;10.70;99.90;;;;;;5040527;28;20028;-82
2022/12/29 01:00:52;;;;;;;4.53;3.38;;;10.70;99.90;;;;;;5059404;28;20161;-81
2022/12/29 01:03:17;;;;;;;3.58;3.08;;;10.70;99.90;;;;;;5043607;28;20105;-81
2022/12/29 01:05:43;;;;;;;3.25;2.60;;;10.70;99.90;;;;;;5050133;28;20502;-81
2022/12/29 01:08:09;;;;;;;3.42;2.67;;;10.70;99.90;;;;;;5058401;28;20052;-82
2022/12/29 01:10:35;;;;;;;4.45;2.78;;;10.80;99.90;;;;;;5025380;28;20450;-81
2022/12/29 01:13:00;;;;;;;3.45;2.63;;;10.80;99.90;;;;;;5041450;28;20036;-82
2022/12/29 01:15:26;;;;;;;3.50;2.42;;;10.80;99.90;;;;;;5073854;28;20069;-82
2022/12/29 01:17:52;;;;;;;4.45;2.67;;;10.80;99.90;;;;;;5023288;28;20043;-82
2022/12/29 01:20:18;;;;;;;2.85;2.30;;;11.40;99.90;;;;;;5073818;28;20040;-82
2022/12/29 01:22:43;;;;;;;2.60;2.10;;;10.90;99.90;;;;;;5040511;28;20412;-82
2022/12/29 01:25:09;;;;;;;4.47;2.60;;;10.90;99.90;;;;;;5023031;28;20055;-82
2022/12/29 01:27:35;;;;;;;3.90;2.60;;;10.90;99.90;;;;;;5057200;28;20036;-82
2022/12/29 01:30:01;;;;;;;4.43;2.60;;;10.90;99.90;;;;;;5040533;28;20056;-82
2022/12/29 01:32:26;;;;;;;2.83;2.30;;;10.90;99.90;;;;;;5022302;28;20075;-81
2022/12/29 01:34:52;;;;;;;3.08;2.35;;;11.00;99.90;;;;;;5038927;28;20392;-81
2022/12/29 01:37:18;;;;;;;3.17;1.77;;;11.00;99.90;;;;;;5057241;28;20044;-82
2022/12/29 01:39:43;;;;;;;3.55;2.35;;;11.00;99.90;;;;;;5056071;28;20073;-82
2022/12/29 01:42:22;;;;;;;2.92;2.60;;;11.00;99.90;;;;;;5039780;28;20036;-82
2022/12/29 01:44:50;;;;;;;3.17;2.42;;;11.00;99.90;;;;;;5073197;28;20055;-82
2022/12/29 01:47:40;;;;;;;3.10;2.58;;;10.20;99.90;;;;;;5071944;28;20082;-82
2022/12/29 01:50:30;;;;;;;4.18;2.50;;;11.00;99.90;;;;;;5072126;28;20043;-82
2022/12/29 01:53:05;;;;;;;2.97;2.30;;;11.00;99.90;;;;;;5055105;28;20036;-82
2022/12/29 01:55:36;;;;;;;2.22;1.52;;;11.00;99.90;;;;;;5064152;28;20036;-82
2022/12/29 01:58:05;;;;;;;4.35;2.20;;;11.00;99.90;;;;;;5071341;28;20035;-81
2022/12/29 02:00:31;;;;;;;4.57;2.67;;;11.00;99.90;;;;;;5055736;28;20403;-82
2022/12/29 02:02:57;;;;;;;4.40;2.40;;;11.00;99.90;;;;;;5040400;28;20043;-82
2022/12/29 02:05:44;;;;;;;4.00;2.38;;;11.10;99.90;;;;;;5056412;28;20075;-82
2022/12/29 02:08:11;;;;;;;4.18;2.47;;;11.00;99.90;;;;;;5072729;28;20044;-82
2022/12/29 02:10:37;;;;;;;5.63;2.58;;;11.10;99.90;;;;;;5039566;28;20047;-82
2022/12/29 02:13:03;;;;;;;4.80;2.42;;;11.00;99.90;;;;;;5048139;28;20028;-82
2022/12/29 02:15:48;;;;;;;3.22;2.17;;;11.00;99.90;;;;;;5073055;28;20440;-81
2022/12/29 02:18:25;;;;;;;5.68;2.40;;;10.90;99.90;;;;;;5075844;28;20036;-87
2022/12/29 02:21:28;;;;;;;2.83;2.40;;;11.00;99.90;;;;;;5056868;28;20036;-87
2022/12/29 02:23:56;;;;;;;4.68;2.30;;;10.90;99.90;;;;;;5057436;28;20119;-87
2022/12/29 02:26:49;;;;;;;4.40;2.40;;;10.90;99.90;;;;;;5072014;28;20510;-85
2022/12/29 02:29:43;;;;;;;3.00;1.58;;;10.90;99.90;;;;;;5048747;28;20055;-84
2022/12/29 02:32:37;;;;;;;4.18;2.15;;;10.80;99.90;;;;;;5055990;28;20044;-84
2022/12/29 02:35:33;;;;;;;2.67;2.20;;;10.80;99.90;;;;;;5074080;28;20118;-86
2022/12/29 02:38:19;;;;;;;3.03;1.77;;;10.80;99.90;;;;;;5058223;28;20040;-84
2022/12/29 02:41:10;;;;;;;2.15;1.63;;;10.70;99.90;;;;;;5057886;28;20073;-84
2022/12/29 02:43:46;;;;;;;3.80;1.65;;;10.70;99.90;;;;;;5058466;28;20119;-85
2022/12/29 02:46:27;;;;;;;1.88;1.40;;;10.60;99.90;;;;;;5057187;28;20136;-84
2022/12/29 02:48:56;;;;;;;1.42;1.00;;;10.60;99.90;;;;;;5073782;28;20076;-85
2022/12/29 02:51:35;;;;;;;1.65;1.45;;;10.70;99.90;;;;;;5075208;28;20039;-84
2022/12/29 02:56:46;;;;;;;2.28;1.55;;;10.70;99.90;;;;;;5060142;28;20040;-84
2022/12/29 02:59:12;;;;;;;1.90;1.30;;;10.70;99.90;;;;;;5057796;28;20047;-84
2022/12/29 03:02:18;;;;;;;3.55;1.42;;;10.60;99.90;;;;;;5056488;28;20040;-84
2022/12/29 03:05:04;;;;;;;3.40;1.35;;;10.70;99.90;;;;;;5073087;28;20071;-84
2022/12/29 03:07:36;;;;;;;2.42;1.35;;;10.70;99.90;;;;;;5048573;28;20075;-84
2022/12/29 03:10:21;;;;;;;1.83;1.42;;;10.60;99.90;;;;;;5074003;28;20135;-85
2022/12/29 03:16:04;;;;;;;3.40;1.33;;;10.70;99.90;;;;;;5074090;28;20047;-85
2022/12/29 03:18:41;;;;;;;3.85;1.40;;;10.70;99.90;;;;;;5073166;28;20132;-85
2022/12/29 03:24:19;;;;;;;3.35;1.55;;;10.70;99.90;;;;;;5073308;28;20047;-84
2022/12/29 03:26:47;;;;;;;2.63;1.48;;;10.70;99.90;;;;;;5073805;28;20119;-85
2022/12/29 03:29:14;;;;;;;3.33;1.60;;;10.70;99.90;;;;;;5054152;28;20064;-85
2022/12/29 03:31:42;;;;;;;3.70;1.73;;;10.70;99.90;;;;;;5039199;28;20043;-85
2022/12/29 03:34:09;;;;;;;3.05;1.38;;;10.80;99.90;;;;;;5058099;28;20060;-85
2022/12/29 03:36:50;;;;;;;7.07;2.00;;;10.80;99.90;;;;;;5058050;28;20036;-85
2022/12/29 03:39:20;;;;;;;2.55;1.23;;;10.80;99.90;;;;;;5072797;28;20032;-86
2022/12/29 03:41:48;;;;;;;3.10;1.35;;;10.80;99.90;;;;;;5056259;28;20101;-86
2022/12/29 03:44:14;;;;;;;5.57;1.77;;;10.80;99.90;;;;;;5071978;28;20079;-84
2022/12/29 03:46:40;;;;;;;12.68;2.00;;;10.80;99.90;;;;;;5037182;28;20079;-83
2022/12/29 03:49:05;;;;;;;7.70;2.08;;;10.70;99.90;;;;;;5055170;28;20032;-86
2022/12/29 03:51:34;;;;;;;3.92;1.73;;;10.60;99.90;;;;;;5041938;28;20032;-88
2022/12/29 03:54:00;;;;;;;5.10;1.63;;;10.40;99.90;;;;;;5058054;28;20047;-88
2022/12/29 03:56:25;;;;;;;3.70;1.60;;;10.30;99.90;;;;;;5042266;28;20044;-87
2022/12/29 03:58:54;;;;;;;5.88;1.88;;;10.20;99.90;;;;;;5056430;28;20563;-89
2022/12/29 04:01:20;;;;;;;5.03;1.55;;;10.20;99.90;;;;;;5044903;28;20044;-88
2022/12/29 04:03:46;;;;;;;6.65;1.90;;;9.90;99.90;;;;;;5052701;28;20581;-86
2022/12/29 04:06:11;;;;;;;5.28;1.70;;;10.00;99.90;;;;;;5054215;28;20123;-87
2022/12/29 04:08:37;;;;;;;5.45;2.00;;;10.00;99.90;;;;;;5071920;28;20036;-86
2022/12/29 04:11:04;;;;;;;4.18;1.88;;;10.10;99.90;;;;;;5054766;28;20031;-86
2022/12/29 04:13:30;;;;;;;5.13;1.60;;;10.00;99.90;;;;;;5038726;28;20043;-86
2022/12/29 04:15:55;;;;;;;3.40;1.70;;;10.00;99.90;;;;;;5061255;28;20044;-85
2022/12/29 04:18:21;;;;;;;5.47;1.50;;;10.00;99.90;;;;;;5062215;28;20023;-85
2022/12/29 04:21:05;;;;;;;3.17;1.42;;;10.00;99.90;;;;;;5072726;28;20089;-85
2022/12/29 04:23:33;;;;;;;4.65;1.55;;;10.00;99.90;;;;;;5056007;28;20044;-85
2022/12/29 04:26:00;;;;;;;4.47;1.48;;;10.00;99.90;;;;;;5056045;28;20048;-85
2022/12/29 04:28:26;;;;;;;8.63;1.88;;;10.10;99.90;;;;;;5072035;28;20039;-85
2022/12/29 04:30:52;;;;;;;8.02;1.95;;;8.90;99.90;;;;;;5054377;28;20127;-85
2022/12/29 04:33:17;;;;;;;9.98;1.65;;;10.00;99.90;;;;;;5038459;28;20596;-85
2022/12/29 04:35:44;;;;;;;9.23;1.75;;;10.00;99.90;;;;;;5072605;28;20101;-84
2022/12/29 04:38:10;;;;;;;8.40;2.05;;;10.00;99.90;;;;;;5054521;28;20046;-85
2022/12/29 04:40:38;;;;;;;12.55;2.08;;;10.00;99.90;;;;;;5054152;28;20105;-84
2022/12/29 04:43:04;;;;;;;7.18;1.60;;;10.00;99.90;;;;;;5055846;28;20496;-85
2022/12/29 04:45:30;;;;;;;8.55;1.65;;;10.00;99.90;;;;;;5038417;28;20044;-85
2022/12/29 04:47:55;;;;;;;13.77;2.13;;;10.00;99.90;;;;;;5037226;28;20469;-85
2022/12/29 04:50:21;;;;;;;13.10;1.65;;;9.20;99.90;;;;;;5038328;28;20795;-85
2022/12/29 04:52:47;;;;;;;6.57;1.38;;;10.00;99.90;;;;;;5039522;28;20499;-85
2022/12/29 04:55:12;;;;;;;8.45;1.90;;;10.00;99.90;;;;;;5038095;28;20688;-85
2022/12/29 04:57:38;;;;;;;7.93;1.60;;;9.90;99.90;;;;;;5054619;28;20043;-85
2022/12/29 05:00:05;;;;;;;9.27;1.70;;;10.00;99.90;;;;;;5037725;28;20058;-86
2022/12/29 05:02:31;;;;;;;7.63;1.48;;;10.00;99.90;;;;;;5055052;28;20047;-86
2022/12/29 05:04:57;;;;;;;6.03;1.20;;;10.00;99.90;;;;;;5037973;28;20044;-85
2022/12/29 05:07:23;;;;;;;6.57;1.33;;;10.00;99.90;;;;;;5054992;28;20645;-86
2022/12/29 05:09:48;;;;;;;6.15;1.40;;;10.00;99.90;;;;;;5055000;28;20037;-86
2022/12/29 05:12:14;;;;;;;5.53;1.48;;;10.00;99.90;;;;;;5054711;28;20048;-86
2022/12/29 05:14:40;;;;;;;6.25;1.50;;;10.00;99.90;;;;;;5055430;28;20040;-86
2022/12/29 05:17:06;;;;;;;6.13;1.40;;;9.90;99.90;;;;;;5039376;28;20048;-86
2022/12/29 05:19:31;;;;;;;4.25;1.10;;;10.00;99.90;;;;;;5055633;28;20067;-86
2022/12/29 05:21:57;;;;;;;5.07;1.30;;;10.00;99.90;;;;;;5055220;28;20120;-86
2022/12/29 05:24:23;;;;;;;4.32;1.30;;;9.90;99.90;;;;;;5038535;28;20037;-86
2022/12/29 05:26:49;;;;;;;6.93;1.80;;;9.90;99.90;;;;;;5022659;28;20471;-86
2022/12/29 05:29:15;;;;;;;4.80;2.40;;;9.90;99.90;;;;;;5047464;28;20531;-86
2022/12/29 05:31:40;;;;;;;6.07;1.42;;;9.90;99.90;;;;;;5038624;28;20135;-86
2022/12/29 05:34:06;;;;;;;4.60;1.60;;;10.00;99.90;;;;;;5038679;28;20074;-86
2022/12/29 05:36:32;;;;;;;6.22;1.92;;;10.00;99.90;;;;;;5023506;28;20125;-87
2022/12/29 05:38:58;;;;;;;8.18;1.52;;;10.00;99.90;;;;;;5040071;28;20043;-86
2022/12/29 05:41:23;;;;;;;8.70;1.75;;;10.00;99.90;;;;;;5070246;28;20035;-86
2022/12/29 05:43:49;;;;;;;6.55;1.70;;;10.00;99.90;;;;;;5054757;28;20040;-86
2022/12/29 05:46:15;;;;;;;6.22;1.98;;;9.90;99.90;;;;;;5055422;28;20160;-86
2022/12/29 05:48:40;;;;;;;5.10;1.42;;;10.00;99.90;;;;;;5055259;28;20038;-87
2022/12/29 05:51:06;;;;;;;7.72;2.05;;;9.90;99.90;;;;;;5039456;28;20039;-87
2022/12/29 05:53:32;;;;;;;9.07;1.83;;;9.90;99.90;;;;;;5059539;28;20036;-87
2022/12/29 05:55:58;;;;;;;4.93;1.70;;;9.90;99.90;;;;;;5059686;28;20111;-87
2022/12/29 05:58:23;;;;;;;10.90;1.75;;;9.90;99.90;;;;;;5043287;28;20541;-86
2022/12/29 06:00:49;;;;;;;10.93;1.63;;;9.80;99.90;;;;;;5059950;28;20122;-87
2022/12/29 06:03:15;;;;;;;11.95;2.05;;;9.80;99.90;;;;;;5060451;28;20089;-87
2022/12/29 06:05:40;;;;;;;8.68;1.80;;;9.70;99.90;;;;;;5060029;28;20047;-87
2022/12/29 06:08:06;;;;;;;8.20;1.70;;;9.70;99.90;;;;;;5062388;28;20050;-87
2022/12/29 06:10:32;;;;;;;8.32;1.90;;;9.70;99.90;;;;;;5059606;28;20101;-87
2022/12/29 06:12:58;;;;;;;11.77;1.83;;;9.70;99.90;;;;;;5061238;28;20040;-86
2022/12/29 06:15:24;;;;;;;8.07;1.70;;;9.80;99.90;;;;;;5044524;28;20097;-88
2022/12/29 06:17:50;;;;;;;8.95;2.20;;;9.70;99.90;;;;;;5043303;28;20047;-88
2022/12/29 06:20:15;;;;;;;6.68;1.65;;;9.70;99.90;;;;;;5044594;28;20044;-87
2022/12/29 06:22:41;;;;;;;6.72;1.67;;;9.70;99.90;;;;;;5044147;28;20084;-87
2022/12/29 06:25:07;;;;;;;6.20;1.70;;;9.70;99.90;;;;;;5026812;28;20578;-87
2022/12/29 06:27:33;;;;;;;9.73;1.55;;;9.70;99.90;;;;;;5077792;28;20036;-88
2022/12/29 06:29:59;;;;;;;8.60;1.98;;;9.70;99.90;;;;;;5059968;28;20209;-88
2022/12/29 06:32:25;;;;;;;8.27;1.55;;;9.70;99.90;;;;;;5060429;28;20051;-87
2022/12/29 06:34:50;;;;;;;8.80;1.63;;;9.80;99.90;;;;;;5035503;28;20502;-88
2022/12/29 06:37:16;;;;;;;8.90;1.95;;;9.80;99.90;;;;;;5059373;28;20403;-89
2022/12/29 06:39:43;;;;;;;10.30;2.08;;;9.80;99.90;;;;;;5058211;28;20496;-88
2022/12/29 06:42:09;;;;;;;10.32;1.95;;;9.80;99.90;;;;;;5043218;28;20068;-88
2022/12/29 06:44:35;;;;;;;9.57;1.75;;;9.80;99.90;;;;;;5059430;28;20177;-87
2022/12/29 06:47:01;;;;;;;11.98;1.80;;;9.80;99.90;;;;;;5042620;28;20131;-87
2022/12/29 06:49:27;;;;;;;8.27;2.05;;;9.80;99.90;;;;;;5060010;28;20040;-88
2022/12/29 06:51:52;;;;;;;14.13;1.70;;;9.80;99.90;;;;;;5042910;28;20358;-88
2022/12/29 06:54:18;;;;;;;7.35;1.63;;;9.80;99.90;;;;;;5058679;28;20040;-88
2022/12/29 06:56:44;;;;;;;10.63;2.17;;;9.80;99.90;;;;;;5059436;28;20047;-88
2022/12/29 06:59:10;;;;;;;11.93;2.30;;;9.80;99.90;;;;;;5059158;28;20067;-88
2022/12/29 07:01:36;;;;;;;13.02;2.13;;;9.80;99.90;;;;;;5059328;28;20114;-88
2022/12/29 07:04:03;;;;;;;12.82;1.77;;;9.80;99.90;;;;;;5042247;28;20036;-88
2022/12/29 07:06:28;;;;;;;14.95;2.45;;;9.70;99.90;;;;;;5061684;28;20046;-87
2022/12/29 07:08:54;;;;;;;17.20;2.35;;;9.70;99.90;;;;;;5044911;28;20462;-87
2022/12/29 07:11:21;;;;;;;11.48;2.10;;;9.90;99.90;;;;;;5044207;28;20484;-89
2022/12/29 07:13:47;;;;;;;13.18;2.63;;;10.50;99.90;;;;;;5059359;28;20039;-88
2022/12/29 07:16:13;;;;;;;11.65;2.22;;;9.70;99.90;;;;;;5059526;28;20040;-88
2022/12/29 07:18:39;;;;;;;14.50;2.55;;;9.60;99.90;;;;;;5058481;28;20036;-89
2022/12/29 07:21:05;;;;;;;8.40;1.90;;;9.60;99.90;;;;;;5043132;28;20499;-88
2022/12/29 07:23:31;;;;;;;9.48;2.58;;;9.70;99.90;;;;;;5066403;28;20044;-89
2022/12/29 07:26:05;;;;;;;9.77;2.40;;;9.70;99.90;;;;;;5058109;28;20056;-87
2022/12/29 07:28:34;;;;;;;12.32;2.33;;;9.70;99.90;;;;;;5059003;28;20397;-89
2022/12/29 07:31:01;;;;;;;8.95;1.58;;;9.70;99.90;;;;;;5077596;28;20052;-90
2022/12/29 07:33:29;;;;;;;13.48;2.67;;;9.80;99.90;;;;;;5059411;28;20048;-84
2022/12/29 07:35:54;;;;;;;10.63;1.70;;;9.80;99.90;;;;;;5056091;28;20046;-85
2022/12/29 07:38:20;;;;;;;8.98;1.90;;;10.10;99.90;;;;;;5055265;28;20044;-84
2022/12/29 07:40:46;;;;;;;9.38;1.92;;;9.80;99.90;;;;;;5039776;28;20043;-84
2022/12/29 07:43:11;;;;;;;14.05;2.78;;;9.80;99.90;;;;;;5068283;28;20051;-83
2022/12/29 07:45:37;;;;;;;11.15;2.10;;;9.80;99.90;;;;;;5054635;28;20438;-83
2022/12/29 07:48:07;;;;;;;9.73;2.33;;;9.70;99.90;;;;;;5055128;28;20051;-84
2022/12/29 07:50:33;;;;;;;9.15;2.05;;;9.70;99.90;;;;;;5054882;28;20032;-84
2022/12/29 07:52:59;;;;;;;12.73;2.97;;;9.70;99.90;;;;;;5071092;28;20040;-83
2022/12/29 07:55:25;;;;;;;12.38;2.53;;;9.70;99.90;;;;;;5055899;28;20039;-84
2022/12/29 07:57:54;;;;;;;12.48;2.22;;;9.70;99.90;;;;;;5069828;28;20105;-84
2022/12/29 08:00:20;;;;;;;11.15;2.20;;;9.80;99.90;;;;;;5071379;28;20044;-83
2022/12/29 08:02:46;;;;;;;11.98;2.53;;;9.70;99.90;;;;;;5053306;28;20070;-83
2022/12/29 08:05:11;;;;;;;16.65;2.70;;;9.80;99.90;;;;;;5023137;28;20118;-87
2022/12/29 08:07:37;;;;;;;15.57;2.47;;;9.80;99.90;;;;;;5040484;28;20046;-86
2022/12/29 08:10:04;;;;;;;10.98;1.67;;;9.70;99.90;;;;;;5057783;28;20043;-87
2022/12/29 08:12:30;;;;;;;13.35;2.72;;;9.70;99.90;;;;;;5040939;28;20036;-86
2022/12/29 08:14:55;;;;;;;15.10;3.03;;;9.80;99.90;;;;;;5057744;28;20365;-86
2022/12/29 08:17:21;;;;;;;14.27;2.70;;;9.70;99.90;;;;;;5040446;28;20133;-87
2022/12/29 08:19:47;;;;;;;17.33;2.67;;;9.80;99.90;;;;;;5022341;28;20050;-86
2022/12/29 08:22:14;;;;;;;12.48;2.33;;;9.80;99.90;;;;;;5039540;28;20055;-88
2022/12/29 08:24:40;;;;;;;13.32;2.88;;;9.80;99.90;;;;;;5057078;28;20048;-86
2022/12/29 08:27:06;;;;;;;10.68;2.40;;;9.80;99.90;;;;;;5053790;28;20047;-86
2022/12/29 08:29:32;;;;;;;12.63;3.20;;;9.80;99.90;;;;;;5055452;28;20055;-86
2022/12/29 08:31:57;;;;;;;13.65;2.30;;;9.90;99.90;;;;;;5071721;28;20050;-86
2022/12/29 08:34:23;;;;;;;13.15;2.10;;;9.90;99.90;;;;;;5038707;28;20043;-85
2022/12/29 08:36:49;;;;;;;10.40;1.90;;;9.90;99.90;;;;;;5040364;28;20039;-85
2022/12/29 08:39:15;;;;;;;13.27;2.33;;;9.90;99.90;;;;;;5028071;28;20584;-86
2022/12/29 08:41:41;;;;;;;12.73;2.58;;;9.90;99.90;;;;;;5047487;28;20051;-89
2022/12/29 08:44:06;;;;;;;14.40;3.03;;;9.90;99.90;;;;;;5059523;28;20123;-90
2022/12/29 08:46:32;;;;;;;10.50;2.03;;;9.90;99.90;;;;;;5041048;28;20047;-87
2022/12/29 08:48:58;;;;;;;11.95;2.30;;;9.90;99.90;;;;;;5041372;28;20039;-89
2022/12/29 08:51:24;;;;;;;12.93;2.03;;;10.00;99.90;;;;;;5041313;28;20036;-90
2022/12/29 08:53:50;;;;;;;11.52;2.30;;;9.90;99.90;;;;;;5025825;28;20040;-90
2022/12/29 08:56:16;;;;;;;7.88;1.88;;;10.00;99.90;;;;;;5042660;28;20044;-89
2022/12/29 08:58:41;;;;;;;11.80;2.75;;;10.00;99.90;;;;;;5058227;28;20720;-90
2022/12/29 09:01:08;;;;;;;9.00;1.83;;;10.00;99.90;;;;;;5040863;28;20065;-90
2022/12/29 09:03:34;;;;;;;12.32;2.28;;;9.90;99.90;;;;;;5057838;28;20119;-90
2022/12/29 09:06:00;;;;;;;16.05;2.85;;;9.90;99.90;;;;;;5040431;28;20602;-90
2022/12/29 09:08:25;;;;;;;10.90;2.00;;;9.80;99.90;;;;;;5040369;28;20231;-90
2022/12/29 09:10:51;;;;;;;8.93;2.42;;;9.70;99.90;;;;;;5038833;28;20124;-89
2022/12/29 09:13:17;;;;;;;13.65;2.72;;;9.70;99.90;;;;;;5039640;28;20122;-90
2022/12/29 09:15:43;;;;;;;11.90;2.10;;;9.70;99.90;;;;;;5023272;28;20055;-90
2022/12/29 09:18:10;;;;;;;13.02;2.30;;;9.70;99.90;;;;;;5055292;28;20044;-89
2022/12/29 09:20:36;;;;;;;11.63;3.28;;;9.70;99.90;;;;;;5039788;28;20040;-88
2022/12/29 09:23:03;;;;;;;10.25;2.65;;;9.60;99.90;;;;;;5054853;28;20040;-88
2022/12/29 09:25:29;;;;;;;12.00;2.22;;;9.60;99.90;;;;;;5072370;28;20484;-88
2022/12/29 09:27:55;;;;;;;11.15;2.30;;;9.60;99.90;;;;;;5055822;28;20047;-89
2022/12/29 09:30:23;;;;;;;14.02;2.42;;;9.60;99.90;;;;;;5057089;28;20043;-88
2022/12/29 09:32:49;;;;;;;8.02;2.40;;;9.60;99.90;;;;;;5053071;28;20056;-90
2022/12/29 09:35:16;;;;;;;10.63;2.42;;;9.60;99.90;;;;;;5036383;28;20090;-89
2022/12/29 09:37:42;;;;;;;15.35;2.05;;;9.60;99.90;;;;;;5032385;28;20036;-84
2022/12/29 09:40:29;;;;;;;10.43;1.80;;;9.50;99.90;;;;;;5050746;28;20063;-89
2022/12/29 09:43:16;;;;;;;11.50;2.40;;;9.50;99.90;;;;;;5065896;28;20055;-85
2022/12/29 09:46:04;;;;;;;12.70;2.92;;;9.60;99.90;;;;;;5051776;28;20052;-85
2022/12/29 09:48:36;;;;;;;16.13;2.50;;;9.50;99.90;;;;;;5051595;28;20485;-85
2022/12/29 09:51:08;;;;;;;10.65;2.58;;;9.50;99.90;;;;;;5051902;28;20025;-85
2022/12/29 09:53:45;;;;;;;13.48;2.80;;;9.50;99.90;;;;;;5055028;28;20062;-85
2022/12/29 09:56:21;;;;;;;16.10;2.78;;;9.50;99.90;;;;;;5050804;28;20484;-84
2022/12/29 09:58:52;;;;;;;10.52;2.00;;;9.50;99.90;;;;;;5068533;28;20106;-84
2022/12/29 10:01:28;;;;;;;13.73;2.72;;;9.60;99.90;;;;;;5051221;28;20116;-85
2022/12/29 10:03:57;;;;;;;13.85;2.10;;;9.60;99.90;;;;;;5061933;28;20072;-84
2022/12/29 10:06:47;;;;;;;13.73;2.17;;;9.60;99.90;;;;;;5051314;28;20119;-84
2022/12/29 10:09:29;;;;;;;9.68;2.30;;;9.50;99.90;;;;;;5051982;28;20048;-84
2022/12/29 10:12:19;;;;;;;7.13;2.22;;;9.50;99.90;;;;;;5051013;28;20123;-84
2022/12/29 10:15:10;;;;;;;8.80;1.85;;;9.50;99.90;;;;;;5067440;28;20504;-84
2022/12/29 10:17:45;;;;;;;11.75;2.15;;;9.50;99.90;;;;;;5031104;28;20094;-84
2022/12/29 10:20:38;;;;;;;12.73;2.85;;;9.40;99.90;;;;;;5051487;28;20443;-84
2022/12/29 10:23:31;;;;;;;12.95;2.22;;;9.50;99.90;;;;;;5067761;28;20082;-84
2022/12/29 10:25:59;;;;;;;8.60;2.03;;;9.50;99.90;;;;;;5067594;28;20048;-84
2022/12/29 10:28:42;;;;;;;8.57;2.15;;;9.50;99.90;;;;;;5067501;28;20489;-84
2022/12/29 10:31:32;;;;;;;9.75;1.98;;;9.50;99.90;;;;;;5050621;28;20455;-85
2022/12/29 10:34:02;;;;;;;12.82;2.20;;;9.50;99.90;;;;;;5070541;28;20095;-84
2022/12/29 10:36:32;;;;;;;5.90;1.75;;;9.50;99.90;;;;;;5054675;28;20043;-85
2022/12/29 10:39:34;;;;;;;9.15;1.60;;;9.60;99.90;;;;;;5056466;28;20093;-85
2022/12/29 10:42:03;;;;;;;12.95;2.17;;;9.60;99.90;;;;;;5072350;28;20040;-83
2022/12/29 10:44:31;;;;;;;6.68;2.00;;;9.60;99.90;;;;;;5057665;28;20032;-84
2022/12/29 10:47:04;;;;;;;8.00;2.15;;;9.60;99.90;;;;;;5057007;28;20040;-83
2022/12/29 10:49:32;;;;;;;8.13;1.95;;;9.50;99.90;;;;;;5056475;28;20465;-84
2022/12/29 10:52:02;;;;;;;8.60;1.85;;;9.50;99.90;;;;;;5058045;28;20043;-86
2022/12/29 10:54:47;;;;;;;10.55;2.00;;;9.50;99.90;;;;;;5090160;28;20081;-90
2022/12/29 10:57:26;;;;;;;9.55;2.83;;;9.50;99.90;;;;;;5069563;28;20101;-88
2022/12/29 10:59:51;;;;;;;11.10;2.22;;;9.50;99.90;;;;;;5055471;28;20044;-86
2022/12/29 11:02:26;;;;;;;8.40;1.85;;;9.40;99.90;;;;;;5048846;28;20505;-83
2022/12/29 11:05:03;;;;;;;9.02;1.95;;;9.50;99.90;;;;;;5049245;28;20392;-84
2022/12/29 11:07:30;;;;;;;10.30;2.20;;;9.50;99.90;;;;;;5072845;28;20550;-83
2022/12/29 11:10:20;;;;;;;8.48;2.50;;;9.50;99.90;;;;;;5075149;28;20028;-84
2022/12/29 11:13:09;;;;;;;10.80;2.47;;;9.50;99.90;;;;;;5059085;28;20064;-84
2022/12/29 11:15:54;;;;;;;11.18;2.40;;;9.50;99.90;;;;;;5055397;28;20090;-84
2022/12/29 11:18:24;;;;;;;14.27;2.97;;;9.50;99.90;;;;;;5059303;28;20044;-82
2022/12/29 11:20:53;;;;;;;12.73;2.10;;;9.50;99.90;;;;;;5057009;28;20052;-84
2022/12/29 11:23:34;;;;;;;16.58;2.63;;;9.30;99.90;;;;;;5047317;28;20040;-82
2022/12/29 11:26:20;;;;;;;17.20;2.80;;;9.30;99.90;;;;;;5056087;28;20079;-81
2022/12/29 11:29:06;;;;;;;15.40;3.00;;;9.20;99.90;;;;;;5070884;28;20078;-83
2022/12/29 11:31:42;;;;;;;17.58;3.40;;;9.30;99.90;;;;;;5055559;28;20295;-82
2022/12/29 11:34:08;;;;;;;12.98;2.45;;;9.40;99.90;;;;;;5077743;28;20054;-80
2022/12/29 11:36:35;;;;;;;19.52;3.28;;;9.40;99.90;;;;;;5075911;28;20048;-81
2022/12/29 11:39:02;;;;;;;14.65;3.13;;;9.40;99.90;;;;;;5071647;28;21080;-81
2022/12/29 11:41:31;;;;;;;15.38;3.08;;;9.40;99.90;;;;;;5072629;28;20396;-80
2022/12/29 11:44:01;;;;;;;16.10;3.75;;;9.70;99.90;;;;;;5069335;28;20047;-81
2022/12/29 11:46:33;;;;;;;16.00;2.95;;;9.90;99.90;;;;;;5070293;28;20480;-85
2022/12/29 11:49:00;;;;;;;20.02;3.03;;;9.90;99.90;;;;;;5054195;28;20441;-86
2022/12/29 11:51:44;;;;;;;13.52;3.10;;;9.90;99.90;;;;;;5036694;28;20060;-84
2022/12/29 11:54:19;;;;;;;14.60;3.40;;;10.00;99.90;;;;;;5057309;28;20130;-83
2022/12/29 11:56:46;;;;;;;15.88;3.55;;;10.10;99.90;;;;;;5055430;28;20051;-83
2022/12/29 11:59:29;;;;;;;14.57;3.45;;;10.30;99.90;;;;;;5072647;28;20036;-84
2022/12/29 12:02:02;;;;;;;20.70;3.58;;;10.40;99.90;;;;;;5072364;28;20059;-84
2022/12/29 12:04:35;;;;;;;18.33;4.00;;;10.30;99.90;;;;;;5056192;28;20459;-83
2022/12/29 12:07:24;;;;;;;13.70;3.30;;;10.10;99.90;;;;;;5072099;28;20036;-84
2022/12/29 12:09:49;;;;;;;11.27;2.40;;;10.00;99.90;;;;;;5072104;28;20435;-83
2022/12/29 12:12:46;;;;;;;16.20;3.10;;;9.90;99.90;;;;;;5072078;28;20035;-83
2022/12/29 12:15:21;;;;;;;11.23;2.63;;;9.60;99.90;;;;;;5069466;28;20044;-81
2022/12/29 12:17:55;;;;;;;16.70;3.38;;;9.50;99.90;;;;;;5071726;28;20039;-84
2022/12/29 12:20:57;;;;;;;12.45;3.58;;;9.40;99.90;;;;;;5047595;28;20048;-83
2022/12/29 12:23:36;;;;;;;14.68;3.00;;;9.30;99.90;;;;;;5072155;28;20043;-83
2022/12/29 12:26:34;;;;;;;13.95;3.05;;;9.30;99.90;;;;;;5072625;28;20503;-84
2022/12/29 12:29:01;;;;;;;18.85;3.58;;;9.30;99.90;;;;;;4986121;28;20050;-84
2022/12/29 12:31:55;;;;;;;11.18;2.72;;;9.40;99.90;;;;;;5046012;28;20032;-83
2022/12/29 12:34:33;;;;;;;14.00;2.78;;;9.50;99.90;;;;;;5071281;28;20067;-83
2022/12/29 12:37:06;;;;;;;14.82;2.85;;;9.50;99.90;;;;;;5071819;28;20128;-84
2022/12/29 12:39:47;;;;;;;18.83;3.08;;;9.50;99.90;;;;;;5072797;28;20119;-83
2022/12/29 12:42:34;;;;;;;15.05;2.80;;;9.50;99.90;;;;;;5054941;28;20032;-84
2022/12/29 12:45:38;;;;;;;17.20;3.67;;;9.50;99.90;;;;;;5072228;28;20083;-83
2022/12/29 12:48:36;;;;;;;18.02;3.60;;;9.50;99.90;;;;;;5054760;28;20048;-84
2022/12/29 12:51:37;;;;;;;24.48;4.25;;;9.50;99.90;;;;;;5018765;28;20058;-83
2022/12/29 12:54:27;;;;;;;17.08;2.67;;;9.40;99.90;;;;;;5016575;28;20082;-84
2022/12/29 12:57:32;;;;;;;13.63;3.53;;;9.40;99.90;;;;;;5054710;28;20047;-84
2022/12/29 13:00:04;;;;;;;22.83;3.92;;;9.40;99.90;;;;;;5055722;28;20062;-84
2022/12/29 13:02:54;;;;;;;15.95;2.90;;;9.50;99.90;;;;;;5046236;28;20395;-84
2022/12/29 13:05:45;;;;;;;19.52;3.65;;;9.50;99.90;;;;;;5071291;28;20119;-84
2022/12/29 13:08:29;;;;;;;13.80;3.30;;;9.50;99.90;;;;;;5051684;28;20048;-84
2022/12/29 13:11:39;;;;;;;12.50;3.30;;;9.60;99.90;;;;;;5053412;28;20073;-83
2022/12/29 13:14:20;;;;;;;17.75;3.88;;;9.90;99.90;;;;;;5006712;28;20183;-84
2022/12/29 13:17:10;;;;;;;14.02;2.50;;;10.10;99.90;;;;;;4988806;28;20056;-84
2022/12/29 13:19:52;;;;;;;16.30;2.95;;;10.20;99.90;;;;;;5030245;28;20048;-84
2022/12/29 13:22:21;;;;;;;18.02;3.03;;;10.20;99.90;;;;;;5054592;28;20480;-84
2022/12/29 13:25:06;;;;;;;19.27;3.00;;;10.10;99.90;;;;;;5071208;28;20050;-84
2022/12/29 13:27:39;;;;;;;19.60;3.97;;;10.00;99.90;;;;;;5071208;28;20119;-84
2022/12/29 13:30:20;;;;;;;16.70;2.85;;;10.00;99.90;;;;;;5070780;28;20097;-84
2022/12/29 13:33:03;;;;;;;16.25;3.55;;;10.00;99.90;;;;;;5069534;28;20056;-84
2022/12/29 13:35:51;;;;;;;15.77;3.20;;;9.90;99.90;;;;;;5051072;28;20043;-87
2022/12/29 13:38:37;;;;;;;17.90;3.35;;;9.80;99.90;;;;;;5054205;28;20036;-84
2022/12/29 13:41:19;;;;;;;17.33;2.83;;;9.80;99.90;;;;;;5053397;28;20084;-84
2022/12/29 13:43:47;;;;;;;17.23;3.17;;;9.70;99.90;;;;;;5056048;28;20036;-84
2022/12/29 13:46:20;;;;;;;14.80;2.78;;;9.80;99.90;;;;;;5061719;28;20074;-82
2022/12/29 13:48:53;;;;;;;14.95;3.00;;;9.80;99.90;;;;;;5055247;28;20045;-84